首页
METAR-TAF:

METAR-TAF

机场 :

加爾維斯敦, 得克萨斯州, 美国

纬度: 29-16-13N, 经度: 094-51-51W, 海拔: 2米

当前天气观测

该预报发布于1小时和36分钟前的11:52 UTC
风速5节,风向西北
温度 23°C
湿度 100%
气压 1019 hPa
能見度: 12.9公里
散云层高于3500英尺
散云层高于7500英尺
多云层高于10000英尺
小雨

METAR: KGLS 251152Z 31005KT 8SM -RA SCT035 SCT075 BKN100 23/23 A3010 RMK AO2 SLP193 6//// 7//// T02330228 10267 20222 51009 PNO

时间: 08:28 (13:28 UTC)

预报

该预报发布于1小时和13分钟前的12:15 UTC
预报有效从25日的 12点(UTC)到 26日的 12点(UTC)
风速10节,风向多变,有时为25节阵风
能見度: 6.4公里
多云层高于2000英尺, 积雨云.
多云层高于3500英尺
阵雨, 轻雾, 附近有雷暴
从 25日的 1800点(UTC)
风速10节,风向南转南东
能見度: 9.7公里
散云层高于1500英尺
多云层高于2500英尺, 积雨云.
多云层高于5000英尺
小阵雨, 轻雾, 附近有雷暴
从 26日的 0100点(UTC)
风速6节,风向多变
能見度: 10公里
多云层高于1500英尺
多云层高于2500英尺
附近有阵雨
从 26日的 0600点(UTC)
风速8节,风向多变
能見度: 9.7公里
多云层高于1500英尺
多云层高于2500英尺
阴天层高于6000英尺
小阵雨,

TAF: KGLS 251215Z 2512/2612 VRB10G25KT 4SM SHRA BR VCTS BKN020CB BKN035 FM251800 16010KT 6SM -SHRA BR VCTS SCT015 BKN025CB BKN050 FM260100 VRB06KT P6SM VCSH BKN015 BKN025 FM260600 VRB08KT 6SM -SHRA BKN015 BKN025 OVC060

超过4000个机场的气象观测和天气预报(METAR&TAF报告)。

可查询的气象台以黄色和红色小点在地图上表示。

将鼠标移到小点上方,可查看气象台名称。

然后点击查看天气观测和预报。

如需切换地图:点击带黑十字的绿色按钮放大地图;点击带横线的绿色按钮缩小地图;或者点击绿色箭头查看邻近地区的地图。


METAR-TAF: